sensor_id;sensor_type;location;lat;lon;timestamp;temperature;humidity
42833;DHT22;64089;51.478;5.692;2023-08-06T00:02:14;15.70;99.90
42833;DHT22;64089;51.478;5.692;2023-08-06T00:04:39;15.70;99.90
42833;DHT22;64089;51.478;5.692;2023-08-06T00:07:05;15.60;99.90
42833;DHT22;64089;51.478;5.692;2023-08-06T00:09:30;15.60;99.90
42833;DHT22;64089;51.478;5.692;2023-08-06T00:11:56;15.60;99.90
42833;DHT22;64089;51.478;5.692;2023-08-06T00:14:21;15.60;99.90
42833;DHT22;64089;51.478;5.692;2023-08-06T00:16:47;15.60;99.90
42833;DHT22;64089;51.478;5.692;2023-08-06T00:19:13;15.60;99.90
42833;DHT22;64089;51.478;5.692;2023-08-06T00:21:38;15.60;99.90
42833;DHT22;64089;51.478;5.692;2023-08-06T00:24:04;15.60;99.90
42833;DHT22;64089;51.478;5.692;2023-08-06T00:26:30;15.70;99.90
42833;DHT22;64089;51.478;5.692;2023-08-06T00:28:55;15.70;99.90
42833;DHT22;64089;51.478;5.692;2023-08-06T00:31:21;15.70;99.90
42833;DHT22;64089;51.478;5.692;2023-08-06T00:33:47;15.70;99.90
42833;DHT22;64089;51.478;5.692;2023-08-06T00:36:12;15.60;99.90
42833;DHT22;64089;51.478;5.692;2023-08-06T00:38:38;15.60;99.90
42833;DHT22;64089;51.478;5.692;2023-08-06T00:41:03;15.70;99.90
42833;DHT22;64089;51.478;5.692;2023-08-06T00:43:29;15.60;99.90
42833;DHT22;64089;51.478;5.692;2023-08-06T00:45:55;15.60;99.90
42833;DHT22;64089;51.478;5.692;2023-08-06T00:48:21;15.60;99.90
42833;DHT22;64089;51.478;5.692;2023-08-06T00:50:47;15.60;99.90
42833;DHT22;64089;51.478;5.692;2023-08-06T00:53:13;15.60;99.90
42833;DHT22;64089;51.478;5.692;2023-08-06T00:55:39;15.50;99.90
42833;DHT22;64089;51.478;5.692;2023-08-06T00:58:05;15.50;99.90
42833;DHT22;64089;51.478;5.692;2023-08-06T01:00:31;15.50;99.90
42833;DHT22;64089;51.478;5.692;2023-08-06T01:02:57;15.50;99.90
42833;DHT22;64089;51.478;5.692;2023-08-06T01:05:22;15.60;99.90
42833;DHT22;64089;51.478;5.692;2023-08-06T01:10:38;15.60;99.90
42833;DHT22;64089;51.478;5.692;2023-08-06T01:16:02;15.60;99.90
42833;DHT22;64089;51.478;5.692;2023-08-06T01:18:29;15.60;99.90
42833;DHT22;64089;51.478;5.692;2023-08-06T01:20:54;15.60;99.90
42833;DHT22;64089;51.478;5.692;2023-08-06T01:23:20;15.60;99.90
42833;DHT22;64089;51.478;5.692;2023-08-06T01:28:42;15.50;99.90
42833;DHT22;64089;51.478;5.692;2023-08-06T01:31:14;15.50;99.90
42833;DHT22;64089;51.478;5.692;2023-08-06T01:33:44;15.60;99.90
42833;DHT22;64089;51.478;5.692;2023-08-06T01:36:10;15.60;99.90
42833;DHT22;64089;51.478;5.692;2023-08-06T01:38:36;15.60;99.90
42833;DHT22;64089;51.478;5.692;2023-08-06T01:41:02;15.60;99.90
42833;DHT22;64089;51.478;5.692;2023-08-06T01:43:27;15.60;99.90
42833;DHT22;64089;51.478;5.692;2023-08-06T01:45:53;15.60;99.90
42833;DHT22;64089;51.478;5.692;2023-08-06T01:48:19;15.60;99.90
42833;DHT22;64089;51.478;5.692;2023-08-06T01:50:44;15.60;99.90
42833;DHT22;64089;51.478;5.692;2023-08-06T01:53:10;15.60;99.90
42833;DHT22;64089;51.478;5.692;2023-08-06T01:55:35;15.60;99.90
42833;DHT22;64089;51.478;5.692;2023-08-06T01:58:01;15.60;99.90
42833;DHT22;64089;51.478;5.692;2023-08-06T02:00:27;15.60;99.90
42833;DHT22;64089;51.478;5.692;2023-08-06T02:02:54;15.60;99.90
42833;DHT22;64089;51.478;5.692;2023-08-06T02:05:19;15.60;99.90
42833;DHT22;64089;51.478;5.692;2023-08-06T02:07:45;15.50;99.90
42833;DHT22;64089;51.478;5.692;2023-08-06T02:10:10;15.50;99.90
42833;DHT22;64089;51.478;5.692;2023-08-06T02:12:36;15.50;99.90
42833;DHT22;64089;51.478;5.692;2023-08-06T02:15:02;15.50;99.90
42833;DHT22;64089;51.478;5.692;2023-08-06T02:17:28;15.50;99.90
42833;DHT22;64089;51.478;5.692;2023-08-06T02:19:54;15.50;99.90
42833;DHT22;64089;51.478;5.692;2023-08-06T02:22:19;15.50;99.90
42833;DHT22;64089;51.478;5.692;2023-08-06T02:24:45;15.50;99.90
42833;DHT22;64089;51.478;5.692;2023-08-06T02:27:11;15.50;99.90
42833;DHT22;64089;51.478;5.692;2023-08-06T02:29:37;15.50;99.90
42833;DHT22;64089;51.478;5.692;2023-08-06T02:32:03;15.50;99.90
42833;DHT22;64089;51.478;5.692;2023-08-06T02:34:28;15.50;99.90
42833;DHT22;64089;51.478;5.692;2023-08-06T02:36:54;15.50;99.90
42833;DHT22;64089;51.478;5.692;2023-08-06T02:39:20;15.40;99.90
42833;DHT22;64089;51.478;5.692;2023-08-06T02:41:45;15.40;99.90
42833;DHT22;64089;51.478;5.692;2023-08-06T02:44:11;15.40;99.90
42833;DHT22;64089;51.478;5.692;2023-08-06T02:46:37;15.40;99.90
42833;DHT22;64089;51.478;5.692;2023-08-06T02:49:02;15.30;99.90
42833;DHT22;64089;51.478;5.692;2023-08-06T02:51:28;15.30;99.90
42833;DHT22;64089;51.478;5.692;2023-08-06T02:53:54;15.30;99.90
42833;DHT22;64089;51.478;5.692;2023-08-06T02:56:19;15.30;99.90
42833;DHT22;64089;51.478;5.692;2023-08-06T02:58:45;15.30;99.90
42833;DHT22;64089;51.478;5.692;2023-08-06T03:01:10;15.30;99.90
42833;DHT22;64089;51.478;5.692;2023-08-06T03:03:36;15.30;99.90
42833;DHT22;64089;51.478;5.692;2023-08-06T03:06:02;15.30;99.90
42833;DHT22;64089;51.478;5.692;2023-08-06T03:08:28;15.30;99.90
42833;DHT22;64089;51.478;5.692;2023-08-06T03:10:54;15.20;99.90
42833;DHT22;64089;51.478;5.692;2023-08-06T03:13:19;15.20;99.90
42833;DHT22;64089;51.478;5.692;2023-08-06T03:15:56;15.20;99.90
42833;DHT22;64089;51.478;5.692;2023-08-06T03:18:22;15.20;99.90
42833;DHT22;64089;51.478;5.692;2023-08-06T03:20:48;15.10;99.90
42833;DHT22;64089;51.478;5.692;2023-08-06T03:23:14;15.10;99.90
42833;DHT22;64089;51.478;5.692;2023-08-06T03:25:40;15.10;99.90
42833;DHT22;64089;51.478;5.692;2023-08-06T03:28:06;15.10;99.90
42833;DHT22;64089;51.478;5.692;2023-08-06T03:30:31;15.10;99.90
42833;DHT22;64089;51.478;5.692;2023-08-06T03:32:57;15.10;99.90
42833;DHT22;64089;51.478;5.692;2023-08-06T03:35:22;15.10;99.90
42833;DHT22;64089;51.478;5.692;2023-08-06T03:37:48;15.10;99.90
42833;DHT22;64089;51.478;5.692;2023-08-06T03:40:15;15.10;99.90
42833;DHT22;64089;51.478;5.692;2023-08-06T03:42:41;15.20;99.90
42833;DHT22;64089;51.478;5.692;2023-08-06T03:45:07;15.20;99.90
42833;DHT22;64089;51.478;5.692;2023-08-06T03:47:32;15.20;99.90
42833;DHT22;64089;51.478;5.692;2023-08-06T03:49:58;15.20;99.90
42833;DHT22;64089;51.478;5.692;2023-08-06T03:52:24;15.10;99.90
42833;DHT22;64089;51.478;5.692;2023-08-06T03:54:49;15.10;99.90
42833;DHT22;64089;51.478;5.692;2023-08-06T03:57:15;15.10;99.90
42833;DHT22;64089;51.478;5.692;2023-08-06T03:59:41;15.10;99.90
42833;DHT22;64089;51.478;5.692;2023-08-06T04:02:06;15.10;99.90
42833;DHT22;64089;51.478;5.692;2023-08-06T04:04:32;15.00;99.90
42833;DHT22;64089;51.478;5.692;2023-08-06T04:06:58;15.10;99.90
42833;DHT22;64089;51.478;5.692;2023-08-06T04:09:23;15.10;99.90
42833;DHT22;64089;51.478;5.692;2023-08-06T04:11:49;15.10;99.90
42833;DHT22;64089;51.478;5.692;2023-08-06T04:14:14;15.10;99.90
42833;DHT22;64089;51.478;5.692;2023-08-06T04:16:40;15.10;99.90
42833;DHT22;64089;51.478;5.692;2023-08-06T04:19:05;15.10;99.90
42833;DHT22;64089;51.478;5.692;2023-08-06T04:21:31;15.10;99.90
42833;DHT22;64089;51.478;5.692;2023-08-06T04:23:57;15.20;99.90
42833;DHT22;64089;51.478;5.692;2023-08-06T04:26:22;15.20;99.90
42833;DHT22;64089;51.478;5.692;2023-08-06T04:28:48;15.20;99.90
42833;DHT22;64089;51.478;5.692;2023-08-06T04:31:14;15.20;99.90
42833;DHT22;64089;51.478;5.692;2023-08-06T04:33:40;15.20;99.90
42833;DHT22;64089;51.478;5.692;2023-08-06T04:36:06;15.10;99.90
42833;DHT22;64089;51.478;5.692;2023-08-06T04:38:32;15.10;99.90
42833;DHT22;64089;51.478;5.692;2023-08-06T04:40:58;15.10;99.90
42833;DHT22;64089;51.478;5.692;2023-08-06T04:43:23;15.20;99.90
42833;DHT22;64089;51.478;5.692;2023-08-06T04:45:51;15.20;99.90
42833;DHT22;64089;51.478;5.692;2023-08-06T04:48:17;15.20;99.90
42833;DHT22;64089;51.478;5.692;2023-08-06T04:50:47;15.30;99.90
42833;DHT22;64089;51.478;5.692;2023-08-06T04:53:13;15.30;99.90
42833;DHT22;64089;51.478;5.692;2023-08-06T04:55:39;15.40;99.90
42833;DHT22;64089;51.478;5.692;2023-08-06T04:58:04;15.40;99.90
42833;DHT22;64089;51.478;5.692;2023-08-06T05:00:30;15.40;99.90
42833;DHT22;64089;51.478;5.692;2023-08-06T05:02:56;15.50;99.90
42833;DHT22;64089;51.478;5.692;2023-08-06T05:05:22;15.50;99.90
42833;DHT22;64089;51.478;5.692;2023-08-06T05:07:49;15.60;99.90
42833;DHT22;64089;51.478;5.692;2023-08-06T05:10:15;15.70;99.90
42833;DHT22;64089;51.478;5.692;2023-08-06T05:12:41;15.60;99.90
42833;DHT22;64089;51.478;5.692;2023-08-06T05:15:07;15.60;99.90
42833;DHT22;64089;51.478;5.692;2023-08-06T05:17:32;15.60;99.90
42833;DHT22;64089;51.478;5.692;2023-08-06T05:19:59;15.50;99.90
42833;DHT22;64089;51.478;5.692;2023-08-06T05:22:25;15.50;99.90
42833;DHT22;64089;51.478;5.692;2023-08-06T05:24:50;15.50;99.90
42833;DHT22;64089;51.478;5.692;2023-08-06T05:27:16;15.60;99.90
42833;DHT22;64089;51.478;5.692;2023-08-06T05:29:45;15.60;99.90
42833;DHT22;64089;51.478;5.692;2023-08-06T05:32:11;15.60;99.90
42833;DHT22;64089;51.478;5.692;2023-08-06T05:34:37;15.60;99.90
42833;DHT22;64089;51.478;5.692;2023-08-06T05:37:03;15.70;99.90
42833;DHT22;64089;51.478;5.692;2023-08-06T05:39:29;15.70;99.90
42833;DHT22;64089;51.478;5.692;2023-08-06T05:41:54;15.80;99.90
42833;DHT22;64089;51.478;5.692;2023-08-06T05:44:21;15.80;99.90
42833;DHT22;64089;51.478;5.692;2023-08-06T05:46:46;15.80;99.90
42833;DHT22;64089;51.478;5.692;2023-08-06T05:49:12;15.80;99.90
42833;DHT22;64089;51.478;5.692;2023-08-06T05:51:39;15.80;99.90
42833;DHT22;64089;51.478;5.692;2023-08-06T05:54:05;15.80;99.90
42833;DHT22;64089;51.478;5.692;2023-08-06T05:56:30;15.90;99.90
42833;DHT22;64089;51.478;5.692;2023-08-06T05:58:56;15.90;99.90
42833;DHT22;64089;51.478;5.692;2023-08-06T06:01:21;15.90;99.90
42833;DHT22;64089;51.478;5.692;2023-08-06T06:03:47;15.90;99.90
42833;DHT22;64089;51.478;5.692;2023-08-06T06:06:13;15.90;99.90
42833;DHT22;64089;51.478;5.692;2023-08-06T06:08:38;16.00;99.90
42833;DHT22;64089;51.478;5.692;2023-08-06T06:11:04;16.00;99.90
42833;DHT22;64089;51.478;5.692;2023-08-06T06:13:29;16.00;99.90
42833;DHT22;64089;51.478;5.692;2023-08-06T06:15:55;16.00;99.90
42833;DHT22;64089;51.478;5.692;2023-08-06T06:18:22;16.10;99.90
42833;DHT22;64089;51.478;5.692;2023-08-06T06:20:47;16.10;99.90
42833;DHT22;64089;51.478;5.692;2023-08-06T06:23:13;16.10;99.90
42833;DHT22;64089;51.478;5.692;2023-08-06T06:25:57;16.10;99.90
42833;DHT22;64089;51.478;5.692;2023-08-06T06:28:23;16.10;99.90
42833;DHT22;64089;51.478;5.692;2023-08-06T06:30:48;16.10;99.90
42833;DHT22;64089;51.478;5.692;2023-08-06T06:33:14;16.30;99.90
42833;DHT22;64089;51.478;5.692;2023-08-06T06:35:39;16.40;99.90
42833;DHT22;64089;51.478;5.692;2023-08-06T06:38:05;16.50;99.90
42833;DHT22;64089;51.478;5.692;2023-08-06T06:40:30;16.60;99.90
42833;DHT22;64089;51.478;5.692;2023-08-06T06:42:56;16.70;99.90
42833;DHT22;64089;51.478;5.692;2023-08-06T06:45:22;16.90;99.90
42833;DHT22;64089;51.478;5.692;2023-08-06T06:47:47;17.10;99.90
42833;DHT22;64089;51.478;5.692;2023-08-06T06:50:13;17.30;99.90
42833;DHT22;64089;51.478;5.692;2023-08-06T06:52:38;17.30;99.90
42833;DHT22;64089;51.478;5.692;2023-08-06T06:55:04;17.40;99.90
42833;DHT22;64089;51.478;5.692;2023-08-06T06:57:30;17.60;99.90
42833;DHT22;64089;51.478;5.692;2023-08-06T06:59:56;17.70;99.90
42833;DHT22;64089;51.478;5.692;2023-08-06T07:02:21;17.90;99.90
42833;DHT22;64089;51.478;5.692;2023-08-06T07:04:47;18.00;99.90
42833;DHT22;64089;51.478;5.692;2023-08-06T07:07:12;17.90;99.90
42833;DHT22;64089;51.478;5.692;2023-08-06T07:09:38;18.00;99.90
42833;DHT22;64089;51.478;5.692;2023-08-06T07:12:04;17.90;99.90
42833;DHT22;64089;51.478;5.692;2023-08-06T07:14:30;18.00;99.90
42833;DHT22;64089;51.478;5.692;2023-08-06T07:16:55;17.90;99.90
42833;DHT22;64089;51.478;5.692;2023-08-06T07:19:21;18.00;99.90
42833;DHT22;64089;51.478;5.692;2023-08-06T07:21:46;18.20;99.90
42833;DHT22;64089;51.478;5.692;2023-08-06T07:24:12;18.20;99.90
42833;DHT22;64089;51.478;5.692;2023-08-06T07:26:38;18.20;99.90
42833;DHT22;64089;51.478;5.692;2023-08-06T07:29:04;18.00;99.90
42833;DHT22;64089;51.478;5.692;2023-08-06T07:31:29;17.80;99.90
42833;DHT22;64089;51.478;5.692;2023-08-06T07:33:55;17.80;99.90
42833;DHT22;64089;51.478;5.692;2023-08-06T07:36:20;17.60;99.90
42833;DHT22;64089;51.478;5.692;2023-08-06T07:38:46;17.60;99.90
42833;DHT22;64089;51.478;5.692;2023-08-06T07:41:14;17.80;99.90
42833;DHT22;64089;51.478;5.692;2023-08-06T07:43:39;17.80;99.90
42833;DHT22;64089;51.478;5.692;2023-08-06T07:46:05;17.90;99.90
42833;DHT22;64089;51.478;5.692;2023-08-06T07:48:31;17.70;99.90
42833;DHT22;64089;51.478;5.692;2023-08-06T07:50:57;17.50;99.90
42833;DHT22;64089;51.478;5.692;2023-08-06T07:53:23;17.40;99.90
42833;DHT22;64089;51.478;5.692;2023-08-06T07:55:53;17.30;99.90
42833;DHT22;64089;51.478;5.692;2023-08-06T07:58:19;17.20;99.90
42833;DHT22;64089;51.478;5.692;2023-08-06T08:00:45;17.00;99.90
42833;DHT22;64089;51.478;5.692;2023-08-06T08:03:12;16.80;99.90
42833;DHT22;64089;51.478;5.692;2023-08-06T08:05:44;16.60;99.90
42833;DHT22;64089;51.478;5.692;2023-08-06T08:08:10;16.50;99.90
42833;DHT22;64089;51.478;5.692;2023-08-06T08:10:36;16.40;99.90
42833;DHT22;64089;51.478;5.692;2023-08-06T08:13:03;16.30;99.90
42833;DHT22;64089;51.478;5.692;2023-08-06T08:15:32;16.10;99.90
42833;DHT22;64089;51.478;5.692;2023-08-06T08:17:59;16.10;99.90
42833;DHT22;64089;51.478;5.692;2023-08-06T08:20:24;16.00;99.90
42833;DHT22;64089;51.478;5.692;2023-08-06T08:22:52;16.00;99.90
42833;DHT22;64089;51.478;5.692;2023-08-06T08:25:17;15.70;99.90
42833;DHT22;64089;51.478;5.692;2023-08-06T08:27:43;15.60;99.90
42833;DHT22;64089;51.478;5.692;2023-08-06T08:30:09;15.50;99.90
42833;DHT22;64089;51.478;5.692;2023-08-06T08:32:34;15.30;99.90
42833;DHT22;64089;51.478;5.692;2023-08-06T08:35:00;15.10;99.90
42833;DHT22;64089;51.478;5.692;2023-08-06T08:37:25;15.10;99.90
42833;DHT22;64089;51.478;5.692;2023-08-06T08:39:51;15.10;99.90
42833;DHT22;64089;51.478;5.692;2023-08-06T08:42:17;15.00;99.90
42833;DHT22;64089;51.478;5.692;2023-08-06T08:44:44;14.90;99.90
42833;DHT22;64089;51.478;5.692;2023-08-06T08:47:10;14.90;99.90
42833;DHT22;64089;51.478;5.692;2023-08-06T08:49:37;14.80;99.90
42833;DHT22;64089;51.478;5.692;2023-08-06T08:52:04;14.80;99.90
42833;DHT22;64089;51.478;5.692;2023-08-06T08:54:35;14.80;99.90
42833;DHT22;64089;51.478;5.692;2023-08-06T08:57:03;14.80;99.90
42833;DHT22;64089;51.478;5.692;2023-08-06T08:59:29;14.70;99.90
42833;DHT22;64089;51.478;5.692;2023-08-06T09:01:55;14.70;99.90
42833;DHT22;64089;51.478;5.692;2023-08-06T09:04:21;14.70;99.90
42833;DHT22;64089;51.478;5.692;2023-08-06T09:06:50;14.80;99.90
42833;DHT22;64089;51.478;5.692;2023-08-06T09:09:30;14.80;99.90
42833;DHT22;64089;51.478;5.692;2023-08-06T09:12:00;14.80;99.90
42833;DHT22;64089;51.478;5.692;2023-08-06T09:14:29;14.90;99.90
42833;DHT22;64089;51.478;5.692;2023-08-06T09:16:55;14.90;99.90
42833;DHT22;64089;51.478;5.692;2023-08-06T09:19:21;15.10;99.90
42833;DHT22;64089;51.478;5.692;2023-08-06T09:21:51;15.00;99.90
42833;DHT22;64089;51.478;5.692;2023-08-06T09:24:17;15.10;99.90
42833;DHT22;64089;51.478;5.692;2023-08-06T09:26:44;15.10;99.90
42833;DHT22;64089;51.478;5.692;2023-08-06T09:29:10;15.10;99.90
42833;DHT22;64089;51.478;5.692;2023-08-06T09:34:19;15.00;99.90
42833;DHT22;64089;51.478;5.692;2023-08-06T09:36:47;15.10;99.90
42833;DHT22;64089;51.478;5.692;2023-08-06T09:39:14;15.10;99.90
42833;DHT22;64089;51.478;5.692;2023-08-06T09:41:41;15.10;99.90
42833;DHT22;64089;51.478;5.692;2023-08-06T09:44:18;15.10;99.90
42833;DHT22;64089;51.478;5.692;2023-08-06T09:46:51;15.10;99.90
42833;DHT22;64089;51.478;5.692;2023-08-06T09:49:19;15.20;99.90
42833;DHT22;64089;51.478;5.692;2023-08-06T09:51:46;15.30;99.90
42833;DHT22;64089;51.478;5.692;2023-08-06T09:54:14;15.30;99.90
42833;DHT22;64089;51.478;5.692;2023-08-06T09:56:42;15.40;99.90
42833;DHT22;64089;51.478;5.692;2023-08-06T09:59:08;15.30;99.90
42833;DHT22;64089;51.478;5.692;2023-08-06T10:01:35;15.30;99.90
42833;DHT22;64089;51.478;5.692;2023-08-06T10:04:03;15.30;99.90
42833;DHT22;64089;51.478;5.692;2023-08-06T10:06:29;15.30;99.90
42833;DHT22;64089;51.478;5.692;2023-08-06T10:08:55;15.40;99.90
42833;DHT22;64089;51.478;5.692;2023-08-06T10:11:24;15.50;99.90
42833;DHT22;64089;51.478;5.692;2023-08-06T10:13:53;15.60;99.90
42833;DHT22;64089;51.478;5.692;2023-08-06T10:16:21;15.50;99.90
42833;DHT22;64089;51.478;5.692;2023-08-06T10:18:47;15.50;99.90
42833;DHT22;64089;51.478;5.692;2023-08-06T10:21:14;15.40;99.90
42833;DHT22;64089;51.478;5.692;2023-08-06T10:23:40;15.40;99.90
42833;DHT22;64089;51.478;5.692;2023-08-06T10:26:06;15.40;99.90
42833;DHT22;64089;51.478;5.692;2023-08-06T10:28:37;15.40;99.90
42833;DHT22;64089;51.478;5.692;2023-08-06T10:31:03;15.40;99.90
42833;DHT22;64089;51.478;5.692;2023-08-06T10:33:50;15.30;99.90
42833;DHT22;64089;51.478;5.692;2023-08-06T10:36:16;15.30;99.90
42833;DHT22;64089;51.478;5.692;2023-08-06T10:38:48;15.40;99.90
42833;DHT22;64089;51.478;5.692;2023-08-06T10:41:30;15.40;99.90
42833;DHT22;64089;51.478;5.692;2023-08-06T10:44:10;15.30;99.90
42833;DHT22;64089;51.478;5.692;2023-08-06T10:46:37;15.40;99.90
42833;DHT22;64089;51.478;5.692;2023-08-06T10:49:04;15.40;99.90
42833;DHT22;64089;51.478;5.692;2023-08-06T10:51:30;15.40;99.90
42833;DHT22;64089;51.478;5.692;2023-08-06T10:53:55;15.50;99.90
42833;DHT22;64089;51.478;5.692;2023-08-06T10:56:24;15.50;99.90
42833;DHT22;64089;51.478;5.692;2023-08-06T10:58:56;15.50;99.90
42833;DHT22;64089;51.478;5.692;2023-08-06T11:01:23;15.50;99.90
42833;DHT22;64089;51.478;5.692;2023-08-06T11:03:50;15.40;99.90
42833;DHT22;64089;51.478;5.692;2023-08-06T11:06:22;15.30;99.90
42833;DHT22;64089;51.478;5.692;2023-08-06T11:08:52;15.40;99.90
42833;DHT22;64089;51.478;5.692;2023-08-06T11:11:19;15.30;99.90
42833;DHT22;64089;51.478;5.692;2023-08-06T11:13:46;15.40;99.90
42833;DHT22;64089;51.478;5.692;2023-08-06T11:16:18;15.40;99.90
42833;DHT22;64089;51.478;5.692;2023-08-06T11:18:44;15.40;99.90
42833;DHT22;64089;51.478;5.692;2023-08-06T11:21:10;15.50;99.90
42833;DHT22;64089;51.478;5.692;2023-08-06T11:23:40;15.40;99.90
42833;DHT22;64089;51.478;5.692;2023-08-06T11:26:06;15.30;99.90
42833;DHT22;64089;51.478;5.692;2023-08-06T11:28:32;15.40;99.90
42833;DHT22;64089;51.478;5.692;2023-08-06T11:30:59;15.40;99.90
42833;DHT22;64089;51.478;5.692;2023-08-06T11:33:27;15.50;99.90
42833;DHT22;64089;51.478;5.692;2023-08-06T11:35:59;15.50;99.90
42833;DHT22;64089;51.478;5.692;2023-08-06T11:38:32;15.50;99.90
42833;DHT22;64089;51.478;5.692;2023-08-06T11:40:57;15.50;99.90
42833;DHT22;64089;51.478;5.692;2023-08-06T11:43:24;15.60;99.90
42833;DHT22;64089;51.478;5.692;2023-08-06T11:45:50;15.50;99.90
42833;DHT22;64089;51.478;5.692;2023-08-06T11:48:16;15.60;99.90
42833;DHT22;64089;51.478;5.692;2023-08-06T11:50:43;15.70;99.90
42833;DHT22;64089;51.478;5.692;2023-08-06T11:53:12;15.60;99.90
42833;DHT22;64089;51.478;5.692;2023-08-06T11:55:38;15.60;99.90
42833;DHT22;64089;51.478;5.692;2023-08-06T11:58:04;15.60;99.90
42833;DHT22;64089;51.478;5.692;2023-08-06T12:00:30;15.60;99.90
42833;DHT22;64089;51.478;5.692;2023-08-06T12:02:56;15.80;99.90
42833;DHT22;64089;51.478;5.692;2023-08-06T12:05:23;15.90;99.90
42833;DHT22;64089;51.478;5.692;2023-08-06T12:07:54;16.00;99.90
42833;DHT22;64089;51.478;5.692;2023-08-06T12:10:21;16.30;99.90
42833;DHT22;64089;51.478;5.692;2023-08-06T12:12:47;16.40;99.90
42833;DHT22;64089;51.478;5.692;2023-08-06T12:15:13;16.60;99.90
42833;DHT22;64089;51.478;5.692;2023-08-06T12:17:39;16.70;99.90
42833;DHT22;64089;51.478;5.692;2023-08-06T12:20:06;16.60;99.90
42833;DHT22;64089;51.478;5.692;2023-08-06T12:22:33;16.70;99.90
42833;DHT22;64089;51.478;5.692;2023-08-06T12:25:05;16.90;99.90
42833;DHT22;64089;51.478;5.692;2023-08-06T12:27:37;16.90;99.90
42833;DHT22;64089;51.478;5.692;2023-08-06T12:30:04;16.80;99.90
42833;DHT22;64089;51.478;5.692;2023-08-06T12:32:30;17.00;99.90
42833;DHT22;64089;51.478;5.692;2023-08-06T12:34:56;17.10;99.90
42833;DHT22;64089;51.478;5.692;2023-08-06T12:37:21;17.10;99.90
42833;DHT22;64089;51.478;5.692;2023-08-06T12:39:48;17.10;99.90
42833;DHT22;64089;51.478;5.692;2023-08-06T12:42:14;17.30;99.90
42833;DHT22;64089;51.478;5.692;2023-08-06T12:44:39;17.20;99.90
42833;DHT22;64089;51.478;5.692;2023-08-06T12:47:06;17.10;99.90
42833;DHT22;64089;51.478;5.692;2023-08-06T12:49:32;17.40;99.90
42833;DHT22;64089;51.478;5.692;2023-08-06T12:51:58;17.70;99.90
42833;DHT22;64089;51.478;5.692;2023-08-06T12:54:25;17.90;99.90
42833;DHT22;64089;51.478;5.692;2023-08-06T12:56:51;18.00;99.90
42833;DHT22;64089;51.478;5.692;2023-08-06T12:59:17;17.90;99.90
42833;DHT22;64089;51.478;5.692;2023-08-06T13:01:43;17.80;99.90
42833;DHT22;64089;51.478;5.692;2023-08-06T13:04:09;17.60;99.90
42833;DHT22;64089;51.478;5.692;2023-08-06T13:06:36;17.50;99.90
42833;DHT22;64089;51.478;5.692;2023-08-06T13:09:05;17.50;99.90
42833;DHT22;64089;51.478;5.692;2023-08-06T13:11:32;17.40;99.90
42833;DHT22;64089;51.478;5.692;2023-08-06T13:14:04;17.50;99.90
42833;DHT22;64089;51.478;5.692;2023-08-06T13:16:30;17.30;99.90
42833;DHT22;64089;51.478;5.692;2023-08-06T13:18:56;17.30;99.90
42833;DHT22;64089;51.478;5.692;2023-08-06T13:21:22;16.90;99.90
42833;DHT22;64089;51.478;5.692;2023-08-06T13:23:47;16.50;99.90
42833;DHT22;64089;51.478;5.692;2023-08-06T13:26:13;16.30;99.90
42833;DHT22;64089;51.478;5.692;2023-08-06T13:28:39;16.10;99.90
42833;DHT22;64089;51.478;5.692;2023-08-06T13:31:04;16.00;99.90
42833;DHT22;64089;51.478;5.692;2023-08-06T13:33:30;15.80;99.90
42833;DHT22;64089;51.478;5.692;2023-08-06T13:35:56;15.80;99.90
42833;DHT22;64089;51.478;5.692;2023-08-06T13:38:21;15.70;99.90
42833;DHT22;64089;51.478;5.692;2023-08-06T13:40:47;15.70;99.90
42833;DHT22;64089;51.478;5.692;2023-08-06T13:43:13;15.70;99.90
42833;DHT22;64089;51.478;5.692;2023-08-06T13:45:41;15.80;99.90
42833;DHT22;64089;51.478;5.692;2023-08-06T13:48:06;16.00;99.90
42833;DHT22;64089;51.478;5.692;2023-08-06T13:50:32;16.00;99.90
42833;DHT22;64089;51.478;5.692;2023-08-06T13:52:58;16.00;99.90
42833;DHT22;64089;51.478;5.692;2023-08-06T13:55:23;15.80;99.90
42833;DHT22;64089;51.478;5.692;2023-08-06T13:57:49;15.80;99.90
42833;DHT22;64089;51.478;5.692;2023-08-06T14:00:15;15.90;99.90
42833;DHT22;64089;51.478;5.692;2023-08-06T14:02:41;16.00;99.90
42833;DHT22;64089;51.478;5.692;2023-08-06T14:05:09;16.00;99.90
42833;DHT22;64089;51.478;5.692;2023-08-06T14:07:34;16.00;99.90
42833;DHT22;64089;51.478;5.692;2023-08-06T14:10:00;16.10;99.90
42833;DHT22;64089;51.478;5.692;2023-08-06T14:12:25;16.20;99.90
42833;DHT22;64089;51.478;5.692;2023-08-06T14:14:51;16.30;99.90
42833;DHT22;64089;51.478;5.692;2023-08-06T14:17:17;16.40;99.90
42833;DHT22;64089;51.478;5.692;2023-08-06T14:19:42;16.50;99.90
42833;DHT22;64089;51.478;5.692;2023-08-06T14:22:08;16.60;99.90
42833;DHT22;64089;51.478;5.692;2023-08-06T14:24:33;16.50;99.90
42833;DHT22;64089;51.478;5.692;2023-08-06T14:26:59;16.40;99.90
42833;DHT22;64089;51.478;5.692;2023-08-06T14:29:25;16.40;99.90
42833;DHT22;64089;51.478;5.692;2023-08-06T14:31:51;16.30;99.90
42833;DHT22;64089;51.478;5.692;2023-08-06T14:34:17;16.20;99.90
42833;DHT22;64089;51.478;5.692;2023-08-06T14:36:42;16.10;99.90
42833;DHT22;64089;51.478;5.692;2023-08-06T14:39:08;16.00;99.90
42833;DHT22;64089;51.478;5.692;2023-08-06T14:41:33;15.90;99.90
42833;DHT22;64089;51.478;5.692;2023-08-06T14:43:59;15.90;99.90
42833;DHT22;64089;51.478;5.692;2023-08-06T14:46:25;15.90;99.90
42833;DHT22;64089;51.478;5.692;2023-08-06T14:48:51;15.90;99.90
42833;DHT22;64089;51.478;5.692;2023-08-06T14:51:16;15.90;99.90
42833;DHT22;64089;51.478;5.692;2023-08-06T14:53:44;15.80;99.90
42833;DHT22;64089;51.478;5.692;2023-08-06T14:56:10;15.70;99.90
42833;DHT22;64089;51.478;5.692;2023-08-06T14:58:36;15.50;99.90
42833;DHT22;64089;51.478;5.692;2023-08-06T15:01:01;15.30;99.90
42833;DHT22;64089;51.478;5.692;2023-08-06T15:03:27;15.10;99.90
42833;DHT22;64089;51.478;5.692;2023-08-06T15:05:53;14.90;99.90
42833;DHT22;64089;51.478;5.692;2023-08-06T15:08:19;15.00;99.90
42833;DHT22;64089;51.478;5.692;2023-08-06T15:10:52;14.90;99.90
42833;DHT22;64089;51.478;5.692;2023-08-06T15:13:20;14.90;99.90
42833;DHT22;64089;51.478;5.692;2023-08-06T15:15:47;14.90;99.90
42833;DHT22;64089;51.478;5.692;2023-08-06T15:18:13;14.90;99.90
42833;DHT22;64089;51.478;5.692;2023-08-06T15:20:39;15.00;99.90
42833;DHT22;64089;51.478;5.692;2023-08-06T15:23:04;15.00;99.90
42833;DHT22;64089;51.478;5.692;2023-08-06T15:25:30;14.90;99.90
42833;DHT22;64089;51.478;5.692;2023-08-06T15:27:55;14.80;99.90
42833;DHT22;64089;51.478;5.692;2023-08-06T15:30:21;14.80;99.90
42833;DHT22;64089;51.478;5.692;2023-08-06T15:32:47;14.80;99.90
42833;DHT22;64089;51.478;5.692;2023-08-06T15:35:13;14.70;99.90
42833;DHT22;64089;51.478;5.692;2023-08-06T15:37:39;14.70;99.90